Time;durP1;ratioP1;P1;durP2;ratioP2;P2;SDS_P1;SDS_P2;PMS_P1;PMS_P2;Temp;Humidity;BMP_temperature;BMP_pressure;BME280_temperature;BME280_humidity;BME280_pressure;Samples;Min_cycle;Max_cycle;Signal;HPM_P1;HPM_P2
2021/12/08 00:01:42;;;;;;;30.17;15.80;;;-1.30;99.90;;;;;;8474757;28;20266;-65
2021/12/08 00:05:44;;;;;;;30.17;15.57;;;-1.40;99.90;;;;;;8463536;28;20244;-69
2021/12/08 00:10:03;;;;;;;33.23;15.87;;;-1.30;99.90;;;;;;8464642;27;20181;-65
2021/12/08 00:14:04;;;;;;;33.33;14.83;;;-1.30;99.90;;;;;;8466721;27;20224;-66
2021/12/08 00:18:08;;;;;;;28.63;15.03;;;-1.30;99.90;;;;;;8485658;27;20221;-65
2021/12/08 00:22:09;;;;;;;32.60;15.93;;;-1.30;99.90;;;;;;8487037;27;20244;-66
2021/12/08 00:26:10;;;;;;;37.17;16.83;;;-1.30;99.90;;;;;;8468706;27;20528;-67
2021/12/08 00:30:11;;;;;;;43.93;19.53;;;-1.30;99.90;;;;;;8490172;27;20175;-67
2021/12/08 00:34:13;;;;;;;42.63;20.30;;;-1.40;99.90;;;;;;8501212;27;20201;-69
2021/12/08 00:38:17;;;;;;;48.00;19.33;;;-1.40;99.90;;;;;;8470565;27;20206;-66
2021/12/08 00:42:19;;;;;;;42.80;19.47;;;-1.30;99.90;;;;;;8487584;27;20175;-69
2021/12/08 00:46:20;;;;;;;43.97;19.07;;;-1.30;99.90;;;;;;8470707;27;20186;-69
2021/12/08 00:50:26;;;;;;;39.27;17.60;;;-1.30;99.90;;;;;;8469548;27;20203;-67
2021/12/08 00:54:26;;;;;;;47.87;19.43;;;-1.30;99.90;;;;;;8502529;27;20179;-66
2021/12/08 00:58:27;;;;;;;57.13;20.40;;;-1.40;99.90;;;;;;8493088;27;20198;-66
2021/12/08 01:02:28;;;;;;;50.70;22.20;;;-1.40;99.90;;;;;;8474622;27;20210;-68
2021/12/08 01:06:29;;;;;;;52.80;20.83;;;-1.40;99.90;;;;;;8468326;27;20278;-67
2021/12/08 01:10:30;;;;;;;44.17;21.20;;;-1.40;99.90;;;;;;8468545;27;20279;-66
2021/12/08 01:14:33;;;;;;;52.47;20.43;;;-1.40;99.90;;;;;;8481280;27;20178;-67
2021/12/08 01:18:34;;;;;;;52.20;20.80;;;-1.40;99.90;;;;;;8475510;27;20234;-66
2021/12/08 01:22:35;;;;;;;54.07;21.70;;;-1.40;99.90;;;;;;8487471;27;20196;-69
2021/12/08 01:26:36;;;;;;;49.40;21.33;;;-1.30;99.90;;;;;;8489060;27;20175;-68
2021/12/08 01:30:38;;;;;;;53.20;21.63;;;-1.30;99.90;;;;;;8485592;27;20179;-67
2021/12/08 01:34:39;;;;;;;51.93;20.57;;;-1.30;99.90;;;;;;8468340;27;20210;-67
2021/12/08 01:38:40;;;;;;;61.47;22.43;;;-1.30;99.90;;;;;;8486564;27;20207;-67
2021/12/08 01:42:45;;;;;;;53.73;21.07;;;-1.30;99.90;;;;;;8484947;27;20198;-66
2021/12/08 01:46:47;;;;;;;55.23;21.40;;;-1.30;99.90;;;;;;8466984;27;20417;-68
2021/12/08 01:50:52;;;;;;;56.67;20.80;;;-1.30;99.90;;;;;;8476759;27;20218;-65
2021/12/08 01:54:53;;;;;;;56.47;22.13;;;-1.30;99.90;;;;;;8486987;27;20179;-67
2021/12/08 01:58:55;;;;;;;53.67;22.20;;;-1.30;99.90;;;;;;8484158;27;20294;-66
2021/12/08 02:02:56;;;;;;;51.63;23.00;;;-1.30;99.90;;;;;;8484942;27;20182;-67
2021/12/08 02:07:00;;;;;;;56.03;22.80;;;-1.30;99.90;;;;;;8467961;27;20303;-69
2021/12/08 02:11:02;;;;;;;60.80;22.30;;;-1.20;99.90;;;;;;8466422;27;20176;-68
2021/12/08 02:15:05;;;;;;;51.20;21.30;;;-1.30;99.90;;;;;;8485105;27;20182;-66
2021/12/08 02:19:06;;;;;;;54.30;20.50;;;-1.30;99.90;;;;;;8499121;27;20182;-68
2021/12/08 02:23:07;;;;;;;52.63;20.43;;;-1.30;99.90;;;;;;8463482;27;20206;-67
2021/12/08 02:27:08;;;;;;;52.07;20.40;;;-1.20;99.90;;;;;;8460278;27;20207;-67
2021/12/08 02:31:12;;;;;;;51.17;20.13;;;-1.20;99.90;;;;;;8494511;27;20193;-65
2021/12/08 02:48:14;;;;;;;51.70;21.03;;;-1.10;99.90;;;;;;8451106;28;20325;-67
2021/12/08 02:52:16;;;;;;;57.33;20.87;;;-1.10;99.90;;;;;;8437504;27;20197;-69
2021/12/08 02:56:17;;;;;;;47.63;20.07;;;-1.00;99.90;;;;;;8475687;27;20207;-68
2021/12/08 03:00:24;;;;;;;54.80;21.70;;;-1.00;99.90;;;;;;8489422;27;20183;-67
2021/12/08 03:04:25;;;;;;;56.60;19.03;;;-1.00;99.90;;;;;;8459925;27;20180;-70
2021/12/08 03:08:26;;;;;;;46.70;18.77;;;-1.00;99.90;;;;;;8469490;28;20226;-66
2021/12/08 03:12:31;;;;;;;47.03;18.80;;;-1.00;99.90;;;;;;8467939;27;20186;-67
2021/12/08 03:16:33;;;;;;;51.27;19.83;;;-1.00;99.90;;;;;;8468454;28;20290;-69
2021/12/08 03:20:43;;;;;;;48.30;20.23;;;-1.00;99.90;;;;;;8465214;28;20244;-67
2021/12/08 03:24:46;;;;;;;46.37;18.90;;;-0.90;99.90;;;;;;8470837;27;20213;-66
2021/12/08 03:28:58;;;;;;;53.07;20.63;;;-0.90;99.90;;;;;;8470446;27;20216;-67
2021/12/08 03:32:59;;;;;;;53.37;21.10;;;-0.90;99.90;;;;;;8464307;28;20520;-67
2021/12/08 03:37:00;;;;;;;48.13;21.10;;;-0.90;99.90;;;;;;8483197;28;20210;-67
2021/12/08 03:41:04;;;;;;;47.90;20.13;;;-0.90;99.90;;;;;;8481762;28;20192;-66
2021/12/08 03:45:11;;;;;;;40.90;18.13;;;-0.90;99.90;;;;;;8483881;27;20176;-66
2021/12/08 03:49:16;;;;;;;48.27;19.60;;;-0.90;99.90;;;;;;8523212;27;20237;-67
2021/12/08 03:53:17;;;;;;;50.13;19.93;;;-0.80;99.90;;;;;;8520450;27;20236;-70
2021/12/08 03:57:19;;;;;;;48.60;19.47;;;-0.80;99.90;;;;;;8492924;27;20302;-67
2021/12/08 04:01:20;;;;;;;45.67;19.67;;;-0.80;99.90;;;;;;8471112;27;20304;-67
2021/12/08 04:05:31;;;;;;;44.47;19.97;;;-0.80;99.90;;;;;;8471067;27;20184;-68
2021/12/08 04:09:38;;;;;;;46.57;20.70;;;-0.80;99.90;;;;;;8476268;27;20188;-68
2021/12/08 04:13:48;;;;;;;48.37;20.80;;;-0.80;99.90;;;;;;8485040;27;20561;-69
2021/12/08 04:17:51;;;;;;;45.50;20.30;;;-0.80;99.90;;;;;;8504833;27;20208;-66
2021/12/08 04:21:55;;;;;;;43.73;19.27;;;-0.80;99.90;;;;;;8478944;27;20173;-66
2021/12/08 04:25:57;;;;;;;47.23;19.97;;;-0.80;99.90;;;;;;8486193;27;20303;-67
2021/12/08 04:29:59;;;;;;;55.40;22.63;;;-0.70;99.90;;;;;;8498663;27;20244;-66
2021/12/08 04:34:03;;;;;;;51.47;19.63;;;-0.70;99.90;;;;;;8503551;27;20199;-66
2021/12/08 04:38:13;;;;;;;47.13;21.40;;;-0.70;99.90;;;;;;8523064;27;20211;-69
2021/12/08 04:42:19;;;;;;;55.27;21.23;;;-0.70;99.90;;;;;;8514383;27;20180;-67
2021/12/08 05:04:04;;;;;;;45.70;19.37;;;-0.70;99.90;;;;;;8488412;27;20265;-66
2021/12/08 05:08:17;;;;;;;45.57;19.53;;;-0.70;99.90;;;;;;8465529;27;20180;-66
2021/12/08 05:12:24;;;;;;;41.60;18.00;;;-0.70;99.90;;;;;;8490795;27;20272;-65
2021/12/08 05:16:28;;;;;;;44.03;17.57;;;-0.70;99.90;;;;;;8489015;27;20212;-67
2021/12/08 05:20:35;;;;;;;40.77;17.43;;;-0.70;99.90;;;;;;8473409;27;20219;-66
2021/12/08 05:24:40;;;;;;;41.20;19.30;;;-0.80;99.90;;;;;;8495127;27;20208;-66
2021/12/08 05:28:44;;;;;;;36.30;16.17;;;-0.80;99.90;;;;;;8478983;27;20188;-65
2021/12/08 05:32:46;;;;;;;36.87;16.93;;;-0.80;99.90;;;;;;8519499;27;20191;-64
2021/12/08 05:36:47;;;;;;;38.63;18.27;;;-0.70;99.90;;;;;;8496893;27;20204;-65
2021/12/08 05:40:52;;;;;;;39.23;17.60;;;-0.80;99.90;;;;;;8465971;27;20175;-66
2021/12/08 05:44:53;;;;;;;39.53;17.57;;;-0.70;99.90;;;;;;8494396;27;20180;-64
2021/12/08 05:48:55;;;;;;;34.93;17.23;;;-0.70;99.90;;;;;;8467837;27;20199;-65
2021/12/08 05:52:56;;;;;;;41.97;18.80;;;-0.70;99.90;;;;;;8467577;27;20213;-67
2021/12/08 05:57:00;;;;;;;46.83;19.30;;;-0.70;99.90;;;;;;8481855;27;20209;-69
2021/12/08 06:01:18;;;;;;;46.30;19.03;;;-0.70;99.90;;;;;;8512433;27;20254;-65
2021/12/08 06:05:19;;;;;;;47.97;19.83;;;-0.70;99.90;;;;;;8466903;27;20204;-66
2021/12/08 06:09:22;;;;;;;45.53;20.50;;;-0.70;99.90;;;;;;8467470;27;20184;-68
2021/12/08 06:13:23;;;;;;;50.00;20.70;;;-0.60;99.90;;;;;;8495525;27;20183;-63
2021/12/08 06:17:30;;;;;;;50.37;21.07;;;-0.60;99.90;;;;;;8467164;27;20239;-66
2021/12/08 06:21:31;;;;;;;46.97;20.23;;;-0.60;99.90;;;;;;8467011;27;20177;-64
2021/12/08 06:25:37;;;;;;;47.53;20.60;;;-0.60;99.90;;;;;;8480206;27;20315;-66
2021/12/08 06:29:38;;;;;;;42.80;20.83;;;-0.60;99.90;;;;;;8504774;27;20185;-65
2021/12/08 06:33:39;;;;;;;49.83;22.17;;;-0.60;99.90;;;;;;8484897;27;20194;-66
2021/12/08 06:37:43;;;;;;;48.33;22.53;;;-0.60;99.90;;;;;;8453263;27;20207;-65
2021/12/08 06:41:49;;;;;;;50.63;21.70;;;-0.60;99.90;;;;;;8464244;27;20184;-67
2021/12/08 06:46:05;;;;;;;53.37;21.97;;;-0.60;99.90;;;;;;8454852;27;20325;-71
2021/12/08 06:50:16;;;;;;;41.53;19.57;;;-0.60;99.90;;;;;;8446365;28;20177;-67
2021/12/08 06:54:24;;;;;;;43.67;19.17;;;-0.60;99.90;;;;;;8444984;28;20246;-68
2021/12/08 06:58:28;;;;;;;47.00;19.83;;;-0.60;99.90;;;;;;8460117;28;20184;-66
2021/12/08 07:02:50;;;;;;;40.57;19.03;;;-0.60;99.90;;;;;;8453791;28;20210;-67
2021/12/08 07:07:00;;;;;;;39.27;19.30;;;-0.60;99.90;;;;;;8436636;28;20284;-69
2021/12/08 07:11:02;;;;;;;44.40;20.00;;;-0.50;99.90;;;;;;8422790;28;20201;-69
2021/12/08 07:15:50;;;;;;;48.87;21.63;;;-0.40;99.90;;;;;;8458463;28;20242;-68
2021/12/08 07:24:27;;;;;;;48.07;20.23;;;-0.30;99.90;;;;;;8406912;28;20231;-69
2021/12/08 07:28:29;;;;;;;44.53;21.93;;;-0.30;99.90;;;;;;8428524;28;20174;-68
2021/12/08 07:32:36;;;;;;;41.17;20.03;;;-0.30;99.90;;;;;;8422165;28;20187;-70
2021/12/08 07:36:40;;;;;;;46.73;22.10;;;-0.20;99.90;;;;;;8406237;28;20194;-69
2021/12/08 07:40:50;;;;;;;35.90;18.20;;;-0.20;99.90;;;;;;8421546;28;20201;-69
2021/12/08 07:44:54;;;;;;;43.13;20.83;;;-0.20;99.90;;;;;;8426841;28;20246;-69
2021/12/08 07:49:12;;;;;;;46.20;22.17;;;-0.30;99.90;;;;;;8401890;28;20176;-69
2021/12/08 07:53:15;;;;;;;44.03;20.87;;;-0.30;99.90;;;;;;8423456;28;20188;-69
2021/12/08 07:57:37;;;;;;;40.47;20.93;;;-0.30;99.90;;;;;;8379538;28;20211;-69
2021/12/08 08:01:45;;;;;;;71.93;29.13;;;-0.20;99.90;;;;;;8410129;28;20177;-69
2021/12/08 08:05:48;;;;;;;53.63;24.77;;;-0.20;99.90;;;;;;8382311;28;20274;-68
2021/12/08 08:09:59;;;;;;;49.33;27.90;;;-0.20;99.90;;;;;;8400956;28;20189;-67
2021/12/08 08:14:01;;;;;;;45.80;19.80;;;-0.20;99.90;;;;;;8421179;28;20206;-71
2021/12/08 08:18:06;;;;;;;60.83;23.67;;;-0.20;99.90;;;;;;8422088;28;20225;-69
2021/12/08 08:22:10;;;;;;;44.87;23.13;;;-0.20;99.90;;;;;;8402266;28;20207;-69
2021/12/08 08:26:13;;;;;;;51.77;23.10;;;-0.20;99.90;;;;;;8412396;28;20194;-68
2021/12/08 08:30:21;;;;;;;43.60;20.60;;;-0.20;99.90;;;;;;8396713;28;20244;-68
2021/12/08 08:34:22;;;;;;;59.23;31.53;;;-0.30;99.90;;;;;;8397940;28;20209;-68
2021/12/08 08:38:31;;;;;;;55.50;21.37;;;-0.30;99.90;;;;;;8398733;28;20184;-67
2021/12/08 08:42:39;;;;;;;42.03;17.20;;;-0.30;99.90;;;;;;8409021;28;20210;-69
2021/12/08 08:46:45;;;;;;;60.03;29.33;;;-0.40;99.90;;;;;;8399624;28;20182;-68
2021/12/08 08:51:11;;;;;;;51.60;20.70;;;-0.40;99.90;;;;;;8416867;28;20185;-67
2021/12/08 08:55:27;;;;;;;40.00;18.37;;;-0.30;99.90;;;;;;8399377;28;20286;-68
2021/12/08 08:59:33;;;;;;;41.70;20.23;;;-0.20;99.90;;;;;;8396320;28;20190;-68
2021/12/08 09:03:37;;;;;;;39.10;18.50;;;-0.10;99.90;;;;;;8379543;28;20219;-69
2021/12/08 09:07:42;;;;;;;40.97;19.53;;;0.00;99.90;;;;;;8377487;28;20179;-67
2021/12/08 09:11:54;;;;;;;37.33;18.70;;;0.10;99.90;;;;;;8391995;28;20184;-68
2021/12/08 09:15:59;;;;;;;44.23;19.53;;;0.20;99.90;;;;;;8410369;28;20187;-68
2021/12/08 09:20:14;;;;;;;45.20;20.43;;;0.20;99.90;;;;;;8392649;28;20211;-68
2021/12/08 09:24:26;;;;;;;46.27;19.17;;;0.30;99.90;;;;;;8417577;28;20248;-70
2021/12/08 09:28:42;;;;;;;41.60;21.70;;;0.40;99.90;;;;;;8411404;28;20257;-68
2021/12/08 09:33:00;;;;;;;47.23;23.10;;;0.40;99.90;;;;;;8419881;28;20259;-68
2021/12/08 09:37:07;;;;;;;47.80;22.97;;;0.50;99.90;;;;;;8401175;28;20195;-68
2021/12/08 09:41:17;;;;;;;39.73;21.03;;;0.60;99.90;;;;;;8382522;28;20250;-68
2021/12/08 09:45:37;;;;;;;40.17;17.47;;;0.80;99.90;;;;;;8376101;28;20221;-68
2021/12/08 09:49:39;;;;;;;36.77;19.07;;;0.80;99.90;;;;;;8368273;28;20177;-69
2021/12/08 09:53:43;;;;;;;38.37;18.10;;;0.70;99.90;;;;;;8401213;28;20190;-69
2021/12/08 09:57:46;;;;;;;39.87;19.33;;;0.70;99.90;;;;;;8393120;28;20251;-69
2021/12/08 10:01:48;;;;;;;34.50;17.33;;;0.70;99.90;;;;;;8376281;28;20184;-69
2021/12/08 10:05:49;;;;;;;37.17;18.40;;;0.80;99.90;;;;;;8367421;28;20296;-67
2021/12/08 10:09:50;;;;;;;36.97;18.73;;;0.80;99.90;;;;;;8400292;28;20180;-68
2021/12/08 10:13:51;;;;;;;34.33;18.93;;;0.80;99.90;;;;;;8392279;28;20223;-69
2021/12/08 10:17:55;;;;;;;40.83;20.20;;;0.80;99.90;;;;;;8406851;28;20260;-67
2021/12/08 10:21:55;;;;;;;41.77;20.27;;;0.80;99.90;;;;;;8394589;28;20196;-69
2021/12/08 10:26:23;;;;;;;42.73;20.10;;;0.90;99.90;;;;;;8391337;28;20218;-69
2021/12/08 10:30:24;;;;;;;49.37;23.00;;;0.90;99.90;;;;;;8388530;28;20180;-68
2021/12/08 10:34:36;;;;;;;31.90;17.63;;;0.90;99.90;;;;;;8388066;28;20183;-68
2021/12/08 10:38:39;;;;;;;39.30;18.87;;;0.80;99.90;;;;;;8388103;28;20185;-70
2021/12/08 10:42:39;;;;;;;33.30;14.93;;;0.80;99.90;;;;;;8387028;28;20243;-70
2021/12/08 10:46:41;;;;;;;34.23;17.80;;;0.70;99.90;;;;;;8411382;28;20180;-69
2021/12/08 10:55:06;;;;;;;46.60;21.83;;;0.70;99.90;;;;;;8397412;28;20199;-68
2021/12/08 10:59:06;;;;;;;41.27;20.30;;;0.60;99.90;;;;;;8392500;28;20185;-67
2021/12/08 11:03:11;;;;;;;41.43;19.37;;;0.60;99.90;;;;;;8399892;28;20215;-67
2021/12/08 11:07:12;;;;;;;32.87;17.20;;;0.60;99.90;;;;;;8367816;28;20398;-68
2021/12/08 11:11:20;;;;;;;39.80;17.57;;;0.40;99.90;;;;;;8389777;28;20180;-67
2021/12/08 11:15:23;;;;;;;36.83;17.77;;;0.30;99.90;;;;;;8415981;28;20193;-69
2021/12/08 11:19:24;;;;;;;32.87;16.47;;;0.30;99.90;;;;;;8366263;28;20178;-67
2021/12/08 11:23:44;;;;;;;30.83;15.60;;;0.30;99.90;;;;;;8379335;28;20210;-69
2021/12/08 11:27:45;;;;;;;35.97;17.80;;;0.30;99.90;;;;;;8383485;28;20187;-67
2021/12/08 11:31:49;;;;;;;36.23;20.50;;;0.40;99.90;;;;;;8403642;28;20187;-68
2021/12/08 11:36:14;;;;;;;38.00;19.40;;;0.40;99.90;;;;;;8405526;28;20192;-67
2021/12/08 11:40:16;;;;;;;34.70;18.23;;;0.40;99.90;;;;;;8361099;28;20203;-68
2021/12/08 11:44:27;;;;;;;32.43;16.60;;;0.40;99.90;;;;;;8399137;28;20210;-67
2021/12/08 11:48:27;;;;;;;38.50;18.20;;;0.40;99.90;;;;;;8424354;28;20250;-67
2021/12/08 11:52:32;;;;;;;30.20;15.03;;;0.30;99.90;;;;;;8375312;28;20220;-68
2021/12/08 11:56:37;;;;;;;33.27;16.47;;;0.40;99.90;;;;;;8404168;28;20183;-67
2021/12/08 12:00:41;;;;;;;33.37;16.50;;;0.40;99.90;;;;;;8391320;28;20226;-67
2021/12/08 12:04:43;;;;;;;31.77;16.00;;;0.40;99.90;;;;;;8369522;28;20209;-68
2021/12/08 12:08:46;;;;;;;30.23;16.17;;;0.30;99.90;;;;;;8372145;28;20184;-68
2021/12/08 12:12:48;;;;;;;33.07;15.10;;;0.40;99.90;;;;;;8386495;28;20190;-68
2021/12/08 12:16:49;;;;;;;29.60;15.27;;;0.40;99.90;;;;;;8405072;28;20280;-69
2021/12/08 12:20:54;;;;;;;34.07;16.63;;;0.40;99.90;;;;;;8387890;28;20173;-68
2021/12/08 12:25:23;;;;;;;33.37;15.90;;;0.50;99.90;;;;;;8406337;28;20217;-68
2021/12/08 12:29:53;;;;;;;29.47;16.13;;;0.60;99.90;;;;;;8399342;28;20181;-68
2021/12/08 12:33:55;;;;;;;36.90;16.07;;;0.70;99.90;;;;;;8386579;28;20255;-68
2021/12/08 12:38:00;;;;;;;32.57;17.33;;;0.80;99.90;;;;;;8371975;28;20188;-67
2021/12/08 12:42:15;;;;;;;36.53;17.63;;;0.80;99.90;;;;;;8379109;28;20270;-68
2021/12/08 12:46:17;;;;;;;33.50;16.60;;;0.90;99.90;;;;;;8402629;28;20279;-67
2021/12/08 12:50:24;;;;;;;35.27;16.17;;;0.80;99.90;;;;;;8388833;28;20186;-69
2021/12/08 12:54:26;;;;;;;31.60;15.93;;;0.90;99.90;;;;;;8397565;28;20240;-67
2021/12/08 12:58:42;;;;;;;31.83;16.00;;;0.90;99.90;;;;;;8389916;28;20184;-68
2021/12/08 13:02:52;;;;;;;32.50;16.90;;;0.90;99.90;;;;;;8407943;28;20201;-68
2021/12/08 13:07:01;;;;;;;39.90;19.17;;;0.90;99.90;;;;;;8368120;28;20181;-67
2021/12/08 13:11:12;;;;;;;35.53;17.50;;;0.90;99.90;;;;;;8369461;28;20185;-68
2021/12/08 13:15:25;;;;;;;33.90;17.73;;;0.90;99.90;;;;;;8374158;28;20203;-69
2021/12/08 13:19:39;;;;;;;31.13;16.10;;;0.80;99.90;;;;;;8368383;28;20193;-70
2021/12/08 13:23:43;;;;;;;43.87;20.50;;;0.60;99.90;;;;;;8383806;28;20212;-69
2021/12/08 13:27:52;;;;;;;34.00;16.87;;;0.50;99.90;;;;;;8416655;28;20184;-67
2021/12/08 13:31:59;;;;;;;36.13;18.57;;;0.50;99.90;;;;;;8403037;28;20185;-68
2021/12/08 13:36:19;;;;;;;37.67;18.60;;;0.40;99.90;;;;;;8414697;28;20226;-67
2021/12/08 13:40:20;;;;;;;40.47;21.47;;;0.30;99.90;;;;;;8378980;28;20182;-68
2021/12/08 13:44:33;;;;;;;47.13;20.93;;;0.20;99.90;;;;;;8388365;28;20222;-68
2021/12/08 13:48:36;;;;;;;51.53;23.53;;;0.10;99.90;;;;;;8364827;28;20192;-68
2021/12/08 13:52:40;;;;;;;53.10;25.50;;;0.10;99.90;;;;;;8372766;28;20195;-67
2021/12/08 13:56:42;;;;;;;40.93;21.00;;;0.10;99.90;;;;;;8400796;28;20195;-69
2021/12/08 14:00:45;;;;;;;43.97;22.47;;;0.00;99.90;;;;;;8380218;28;20184;-67
2021/12/08 14:04:46;;;;;;;73.97;30.83;;;0.00;99.90;;;;;;8390233;28;20303;-68
2021/12/08 14:08:49;;;;;;;49.20;24.70;;;-0.10;99.90;;;;;;8390866;28;20195;-68
2021/12/08 14:13:04;;;;;;;43.30;21.30;;;-0.20;99.90;;;;;;8393695;28;20190;-68
2021/12/08 14:17:05;;;;;;;54.63;25.27;;;-0.20;99.90;;;;;;8353776;28;20217;-68
2021/12/08 14:21:08;;;;;;;40.87;20.50;;;-0.20;99.90;;;;;;8370686;28;20185;-68
2021/12/08 14:25:09;;;;;;;41.10;19.63;;;-0.20;99.90;;;;;;8385059;28;20233;-67
2021/12/08 14:29:22;;;;;;;43.73;20.63;;;-0.30;99.90;;;;;;8392781;28;20187;-68
2021/12/08 14:33:26;;;;;;;41.20;19.27;;;-0.30;99.90;;;;;;8390580;28;20240;-68
2021/12/08 14:37:27;;;;;;;36.30;20.50;;;-0.30;99.90;;;;;;8397114;28;20187;-68
2021/12/08 14:41:32;;;;;;;37.40;19.37;;;-0.30;99.90;;;;;;8385875;28;20189;-68
2021/12/08 14:45:34;;;;;;;79.63;39.53;;;-0.40;99.90;;;;;;8398944;28;20295;-67
2021/12/08 14:49:40;;;;;;;60.90;28.17;;;-0.40;99.90;;;;;;8399476;28;20231;-68
2021/12/08 14:53:41;;;;;;;53.33;24.27;;;-0.40;99.90;;;;;;8400216;28;20194;-66
2021/12/08 14:57:45;;;;;;;43.17;21.47;;;-0.50;99.90;;;;;;8385845;28;20231;-71
2021/12/08 15:01:46;;;;;;;57.03;26.23;;;-0.50;99.90;;;;;;8392803;28;20176;-67
2021/12/08 15:05:49;;;;;;;53.83;25.10;;;-0.50;99.90;;;;;;8387194;28;20211;-68
2021/12/08 15:10:06;;;;;;;59.47;25.73;;;-0.50;99.90;;;;;;8412385;28;20259;-67
2021/12/08 15:14:14;;;;;;;53.40;24.20;;;-0.50;99.90;;;;;;8385437;28;20352;-67
2021/12/08 15:18:18;;;;;;;40.70;18.80;;;-0.60;99.90;;;;;;8373024;28;20182;-68
2021/12/08 15:22:37;;;;;;;40.00;18.23;;;-0.70;99.90;;;;;;8376423;28;20210;-69
2021/12/08 15:26:38;;;;;;;47.53;21.73;;;-0.70;99.90;;;;;;8366290;28;20182;-72
2021/12/08 15:30:46;;;;;;;44.83;23.13;;;-0.80;99.90;;;;;;8372530;28;20185;-71
2021/12/08 15:34:47;;;;;;;56.67;26.03;;;-0.80;99.90;;;;;;8393438;28;20193;-71
2021/12/08 15:38:52;;;;;;;51.53;23.23;;;-0.80;99.90;;;;;;8374607;28;20210;-71
2021/12/08 15:42:58;;;;;;;66.73;25.73;;;-0.80;99.90;;;;;;8388183;28;20228;-71
2021/12/08 15:47:00;;;;;;;54.17;25.00;;;-0.60;99.90;;;;;;8377996;28;20246;-69
2021/12/08 15:51:04;;;;;;;50.40;22.03;;;-0.60;99.90;;;;;;8374617;28;20179;-70
2021/12/08 15:55:06;;;;;;;54.03;25.17;;;-0.70;99.90;;;;;;8392699;28;20193;-71
2021/12/08 15:59:39;;;;;;;48.67;24.73;;;-0.70;99.90;;;;;;8396772;28;20200;-69
2021/12/08 16:03:43;;;;;;;47.63;22.67;;;-0.70;99.90;;;;;;8379064;28;20208;-68
2021/12/08 16:07:49;;;;;;;50.30;24.83;;;-0.80;99.90;;;;;;8387269;28;20191;-71
2021/12/08 16:11:53;;;;;;;46.67;21.20;;;-0.80;99.90;;;;;;8398207;28;20241;-72
2021/12/08 16:15:57;;;;;;;46.60;22.73;;;-0.80;99.90;;;;;;8405205;28;20184;-70
2021/12/08 16:20:11;;;;;;;46.27;21.87;;;-0.80;99.90;;;;;;8397558;28;20179;-70
2021/12/08 16:24:13;;;;;;;48.77;23.67;;;-0.80;99.90;;;;;;8391155;28;20214;-69
2021/12/08 16:28:14;;;;;;;51.00;23.90;;;-0.80;99.90;;;;;;8406006;28;20181;-71
2021/12/08 16:32:17;;;;;;;51.23;24.27;;;-0.70;99.90;;;;;;8424948;28;20178;-71
2021/12/08 16:36:19;;;;;;;58.13;25.87;;;-0.70;99.90;;;;;;8398313;28;20224;-69
2021/12/08 16:40:23;;;;;;;46.67;22.03;;;-0.70;99.90;;;;;;8373837;28;20183;-71
2021/12/08 16:44:25;;;;;;;51.33;22.33;;;-0.80;99.90;;;;;;8420831;28;20206;-72
2021/12/08 16:48:29;;;;;;;46.20;23.13;;;-0.90;99.90;;;;;;8427985;28;20178;-71
2021/12/08 16:52:30;;;;;;;46.70;22.57;;;-0.90;99.90;;;;;;8409276;28;20192;-72
2021/12/08 16:56:31;;;;;;;47.07;22.93;;;-0.80;99.90;;;;;;8405803;28;20185;-72
2021/12/08 17:00:46;;;;;;;52.80;24.23;;;-0.90;99.90;;;;;;8415695;28;20179;-71
2021/12/08 17:04:47;;;;;;;48.43;22.47;;;-0.90;99.90;;;;;;8386116;28;20205;-69
2021/12/08 17:08:49;;;;;;;49.63;23.57;;;-0.90;99.90;;;;;;8387066;28;20262;-72
2021/12/08 17:12:50;;;;;;;46.57;22.30;;;-0.80;99.90;;;;;;8384693;28;20190;-71
2021/12/08 17:16:51;;;;;;;46.07;22.03;;;-0.80;99.90;;;;;;8404675;28;20185;-72
2021/12/08 17:20:52;;;;;;;50.30;24.13;;;-0.80;99.90;;;;;;8410302;28;20186;-71
2021/12/08 17:24:53;;;;;;;51.47;22.97;;;-0.80;99.90;;;;;;8437589;28;20442;-71
2021/12/08 17:28:54;;;;;;;52.30;23.37;;;-0.80;99.90;;;;;;8433012;28;20186;-71
2021/12/08 17:32:55;;;;;;;53.57;23.90;;;-0.80;99.90;;;;;;8397985;28;20186;-71
2021/12/08 17:36:56;;;;;;;46.13;23.47;;;-0.80;99.90;;;;;;8408351;28;20186;-71
2021/12/08 17:41:02;;;;;;;53.97;24.73;;;-0.80;99.90;;;;;;8421878;28;20210;-71
2021/12/08 17:45:05;;;;;;;55.77;25.87;;;-0.80;99.90;;;;;;8404325;28;20211;-71
2021/12/08 17:49:07;;;;;;;51.83;24.03;;;-0.70;99.90;;;;;;8409678;28;20207;-72
2021/12/08 17:53:10;;;;;;;63.67;31.10;;;-0.70;99.90;;;;;;8386481;28;20190;-70
2021/12/08 17:57:11;;;;;;;57.97;24.73;;;-0.70;99.90;;;;;;8395032;28;20206;-71
2021/12/08 18:01:12;;;;;;;60.77;25.93;;;-0.80;99.90;;;;;;8424401;28;20278;-72
2021/12/08 18:05:13;;;;;;;60.77;28.03;;;-0.80;99.90;;;;;;8386055;28;20211;-70
2021/12/08 18:09:17;;;;;;;59.20;27.53;;;-0.80;99.90;;;;;;8409225;28;20234;-70
2021/12/08 18:13:18;;;;;;;54.20;26.17;;;-0.80;99.90;;;;;;8415299;28;20189;-72
2021/12/08 18:17:21;;;;;;;53.50;25.40;;;-0.80;99.90;;;;;;8384066;28;20195;-71
2021/12/08 18:21:23;;;;;;;51.03;26.07;;;-0.80;99.90;;;;;;8387689;28;20189;-70
2021/12/08 18:25:25;;;;;;;51.93;26.43;;;-0.80;99.90;;;;;;8369484;28;20348;-71
2021/12/08 18:29:26;;;;;;;55.33;26.13;;;-0.80;99.90;;;;;;8409302;28;20181;-72
2021/12/08 18:33:30;;;;;;;50.23;25.03;;;-0.80;99.90;;;;;;8426650;28;20273;-70
2021/12/08 18:37:32;;;;;;;48.63;24.93;;;-0.80;99.90;;;;;;8391012;28;20210;-70
2021/12/08 18:41:33;;;;;;;58.10;26.10;;;-0.80;99.90;;;;;;8389496;28;20181;-73
2021/12/08 18:45:38;;;;;;;54.03;26.27;;;-0.80;99.90;;;;;;8410923;28;20236;-72
2021/12/08 18:49:40;;;;;;;56.10;26.83;;;-0.80;99.90;;;;;;8411314;28;20177;-72
2021/12/08 18:53:47;;;;;;;59.07;26.50;;;-0.80;99.90;;;;;;8395679;28;20187;-71
2021/12/08 18:57:48;;;;;;;56.83;28.43;;;-0.80;99.90;;;;;;8397815;28;20277;-71
2021/12/08 19:01:51;;;;;;;55.37;26.47;;;-0.80;99.90;;;;;;8422609;28;20179;-70
2021/12/08 19:05:52;;;;;;;56.57;25.30;;;-0.80;99.90;;;;;;8386534;28;20234;-70
2021/12/08 19:09:53;;;;;;;56.80;27.60;;;-0.90;99.90;;;;;;8418888;28;20182;-68
2021/12/08 19:13:55;;;;;;;61.50;27.60;;;-0.90;99.90;;;;;;8407933;28;20202;-71
2021/12/08 19:17:58;;;;;;;54.13;26.00;;;-0.90;99.90;;;;;;8401740;28;20206;-71
2021/12/08 19:22:02;;;;;;;58.83;27.90;;;-0.90;99.90;;;;;;8416050;28;20232;-72
2021/12/08 19:26:03;;;;;;;61.83;27.57;;;-0.90;99.90;;;;;;8392307;28;20201;-69
2021/12/08 19:30:07;;;;;;;69.43;30.20;;;-0.90;99.90;;;;;;8408881;28;20220;-70
2021/12/08 19:34:08;;;;;;;63.70;27.90;;;-0.90;99.90;;;;;;8406231;28;20272;-70
2021/12/08 19:38:12;;;;;;;71.90;31.63;;;-0.90;99.90;;;;;;8385510;28;20185;-72
2021/12/08 19:42:14;;;;;;;61.00;28.03;;;-0.90;99.90;;;;;;8377844;28;20200;-70
2021/12/08 19:46:17;;;;;;;62.80;27.87;;;-0.90;99.90;;;;;;8426455;28;20301;-70
2021/12/08 19:50:23;;;;;;;61.00;28.57;;;-0.90;99.90;;;;;;8380104;28;20229;-69
2021/12/08 19:54:24;;;;;;;63.40;29.20;;;-0.90;99.90;;;;;;8375506;28;20199;-70
2021/12/08 19:58:25;;;;;;;63.37;25.90;;;-1.00;99.90;;;;;;8415889;28;20188;-69
2021/12/08 20:02:26;;;;;;;58.97;27.37;;;-1.00;99.90;;;;;;8369306;28;20196;-71
2021/12/08 20:06:27;;;;;;;60.27;28.67;;;-1.00;99.90;;;;;;8380486;28;20208;-70
2021/12/08 20:10:29;;;;;;;59.03;27.80;;;-1.10;99.90;;;;;;8408510;28;20187;-70
2021/12/08 20:14:31;;;;;;;71.63;30.77;;;-1.10;99.90;;;;;;8401300;28;20192;-69
2021/12/08 20:18:33;;;;;;;61.57;29.43;;;-1.10;99.90;;;;;;8372714;28;20189;-69
2021/12/08 20:22:37;;;;;;;72.20;31.00;;;-1.10;99.90;;;;;;8416760;28;20205;-69
2021/12/08 20:26:39;;;;;;;60.63;28.73;;;-1.10;99.90;;;;;;8394082;28;20190;-70
2021/12/08 20:30:41;;;;;;;67.20;30.87;;;-1.10;99.90;;;;;;8395777;28;20238;-71
2021/12/08 20:34:43;;;;;;;53.87;26.23;;;-1.10;99.90;;;;;;8418587;28;20238;-71
2021/12/08 20:38:46;;;;;;;58.50;26.03;;;-1.10;99.90;;;;;;8416317;28;20181;-72
2021/12/08 20:42:50;;;;;;;56.20;25.70;;;-1.20;99.90;;;;;;8399021;28;20232;-71
2021/12/08 20:46:52;;;;;;;60.60;26.80;;;-1.20;99.90;;;;;;8391064;28;20181;-72
2021/12/08 20:50:53;;;;;;;60.30;26.83;;;-1.20;99.90;;;;;;8399837;28;20178;-69
2021/12/08 20:54:54;;;;;;;58.10;26.17;;;-1.20;99.90;;;;;;8383894;28;20202;-70
2021/12/08 20:59:00;;;;;;;65.83;25.93;;;-1.20;99.90;;;;;;8399787;28;20195;-70
2021/12/08 21:03:02;;;;;;;66.00;28.17;;;-1.20;99.90;;;;;;8357672;28;20235;-71
2021/12/08 21:07:04;;;;;;;63.67;28.10;;;-1.20;99.90;;;;;;8397642;28;20197;-69
2021/12/08 21:11:09;;;;;;;68.73;27.43;;;-1.20;99.90;;;;;;8377906;28;20196;-70
2021/12/08 21:15:10;;;;;;;61.50;27.17;;;-1.20;99.90;;;;;;8392416;28;20190;-71
2021/12/08 21:19:12;;;;;;;73.07;30.77;;;-1.30;99.90;;;;;;8405213;28;20192;-71
2021/12/08 21:23:15;;;;;;;82.27;31.23;;;-1.30;99.90;;;;;;8394440;28;20272;-71